Time;durP1;ratioP1;P1;durP2;ratioP2;P2;SDS_P1;SDS_P2;PMS_P1;PMS_P2;Temp;Humidity;BMP_temperature;BMP_pressure;BME280_temperature;BME280_humidity;BME280_pressure;Samples;Min_cycle;Max_cycle;Signal;HPM_P1;HPM_P2
2022/06/13 00:02:23;;;;;;;4.25;2.62;;;;;;;23.71;68.06;100343.03;4471021;32;20442;-66
2022/06/13 00:04:50;;;;;;;4.03;2.55;;;;;;;23.09;70.49;100344.38;4471256;32;20146;-66
2022/06/13 00:07:18;;;;;;;2.80;2.60;;;;;;;23.00;70.42;100344.94;4471053;32;20072;-66
2022/06/13 00:09:45;;;;;;;4.10;2.50;;;;;;;22.94;69.69;100344.50;4470919;32;20443;-66
2022/06/13 00:12:12;;;;;;;3.33;2.75;;;;;;;23.10;69.07;100346.09;4470871;32;20149;-66
2022/06/13 00:14:39;;;;;;;2.80;2.60;;;;;;;23.28;69.57;100346.72;4471002;32;20096;-66
2022/06/13 00:17:06;;;;;;;2.60;2.50;;;;;;;23.85;67.33;100340.28;4470985;32;20112;-66
2022/06/13 00:19:34;;;;;;;3.30;2.85;;;;;;;22.96;68.75;100342.56;4456328;32;20455;-66
2022/06/13 00:22:01;;;;;;;5.65;2.60;;;;;;;22.89;68.35;100342.91;4470993;32;20157;-66
2022/06/13 00:24:28;;;;;;;2.78;2.58;;;;;;;22.93;69.66;100340.94;4470902;32;20439;-66
2022/06/13 00:26:55;;;;;;;5.12;2.97;;;;;;;22.77;69.10;100335.66;4471078;32;20135;-66
2022/06/13 00:29:23;;;;;;;3.87;2.50;;;;;;;22.81;69.53;100339.88;4470736;32;20153;-66
2022/06/13 00:31:50;;;;;;;3.17;2.87;;;;;;;22.87;68.31;100331.44;4470662;32;20126;-66
2022/06/13 00:34:17;;;;;;;3.10;2.37;;;;;;;22.89;70.16;100326.78;4471135;32;20088;-66
2022/06/13 00:36:45;;;;;;;5.07;2.75;;;;;;;24.48;61.19;100325.19;4470821;32;20412;-66
2022/06/13 00:39:12;;;;;;;6.05;2.60;;;;;;;24.40;61.12;100323.03;4470841;32;20417;-66
2022/06/13 00:41:42;;;;;;;3.20;2.90;;;;;;;24.39;60.18;100323.12;4470843;32;20519;-66
2022/06/13 00:44:24;;;;;;;3.95;2.65;;;;;;;24.51;60.07;100323.16;4470796;32;20521;-66
2022/06/13 00:46:51;;;;;;;2.58;2.37;;;;;;;24.42;60.79;100321.13;4470891;32;20072;-66
2022/06/13 00:49:26;;;;;;;7.82;2.45;;;;;;;24.22;60.45;100319.78;4470823;32;20478;-66
2022/06/13 00:52:08;;;;;;;4.22;2.22;;;;;;;24.28;59.81;100321.19;4470710;32;20092;-66
2022/06/13 00:54:37;;;;;;;3.42;2.53;;;;;;;24.83;58.25;100314.59;4470655;32;20092;-66
2022/06/13 00:57:08;;;;;;;3.40;2.37;;;;;;;24.84;57.95;100310.94;4470629;32;20108;-66
2022/06/13 00:59:36;;;;;;;2.92;2.17;;;;;;;24.20;60.32;100312.78;4470756;32;20145;-66
2022/06/13 01:02:04;;;;;;;2.70;2.50;;;;;;;24.29;59.50;100310.31;4470600;32;20222;-66
2022/06/13 01:04:31;;;;;;;4.43;2.28;;;;;;;24.44;58.55;100315.59;4469703;32;20084;-66
2022/06/13 01:07:00;;;;;;;5.30;2.60;;;;;;;24.52;58.18;100310.53;4470845;32;20084;-66
2022/06/13 01:12:15;;;;;;;2.97;2.30;;;;;;;24.65;57.33;100303.31;4470554;32;20173;-66
2022/06/13 01:14:42;;;;;;;2.72;2.33;;;;;;;23.82;60.17;100289.38;4470586;32;20582;-66
2022/06/13 01:17:20;;;;;;;9.23;2.55;;;;;;;23.76;60.26;100289.81;4470542;32;20171;-66
2022/06/13 01:20:13;;;;;;;2.55;2.28;;;;;;;23.60;60.65;100295.31;4470707;32;20466;-66
2022/06/13 01:22:52;;;;;;;2.03;1.90;;;;;;;23.58;60.69;100287.34;4470793;32;20153;-66
2022/06/13 01:25:47;;;;;;;3.75;2.10;;;;;;;23.67;60.92;100288.59;4470527;32;20582;-66
2022/06/13 01:28:36;;;;;;;4.32;2.37;;;;;;;23.55;60.98;100289.41;4470565;32;20156;-66
2022/06/13 01:31:21;;;;;;;3.67;2.10;;;;;;;23.44;61.83;100286.56;4470260;32;20114;-66
2022/06/13 01:34:22;;;;;;;3.92;2.10;;;;;;;23.45;61.93;100288.28;4470371;32;20172;-66
2022/06/13 01:37:14;;;;;;;2.00;1.90;;;;;;;23.46;62.88;100285.47;4470521;32;20271;-66
2022/06/13 01:40:05;;;;;;;2.50;2.20;;;;;;;23.39;63.40;100281.47;4470404;32;20068;-66
2022/06/13 01:42:48;;;;;;;4.95;2.30;;;;;;;23.32;62.76;100278.38;4470425;32;20485;-66
2022/06/13 01:45:52;;;;;;;5.10;2.67;;;;;;;23.14;63.67;100287.63;4470448;32;20097;-66
2022/06/13 01:48:37;;;;;;;4.30;2.65;;;;;;;23.18;64.34;100281.09;4470433;32;20095;-66
2022/06/13 01:51:24;;;;;;;6.37;2.53;;;;;;;22.83;66.33;100283.38;4470249;32;20068;-66
2022/06/13 01:54:20;;;;;;;2.83;2.58;;;;;;;22.67;67.31;100280.78;4470319;32;20203;-66
2022/06/13 01:56:56;;;;;;;4.22;2.42;;;;;;;22.56;68.60;100276.09;4470161;32;20093;-66
2022/06/13 01:59:36;;;;;;;;;;;;;;;22.71;67.99;100281.44;4470642;32;20126;-66
2022/06/13 02:02:28;;;;;;;2.60;2.40;;;;;;;22.69;68.48;100268.13;4470578;32;20647;-66
2022/06/13 02:05:01;;;;;;;6.78;2.50;;;;;;;22.84;66.68;100274.34;4470361;32;20084;-66
2022/06/13 02:07:42;;;;;;;3.80;2.97;;;;;;;22.66;67.60;100260.28;4470326;32;20084;-66
2022/06/13 02:10:34;;;;;;;4.12;2.67;;;;;;;22.47;70.12;100275.81;4470141;32;20499;-66
2022/06/13 02:13:08;;;;;;;3.42;2.65;;;;;;;23.11;68.05;100274.41;4470386;32;20396;-66
2022/06/13 02:15:49;;;;;;;3.03;2.60;;;;;;;22.52;69.04;100277.25;4469791;32;20473;-66
2022/06/13 02:18:26;;;;;;;3.25;2.70;;;;;;;22.13;70.84;100273.38;4470199;32;20088;-66
2022/06/13 02:20:58;;;;;;;2.90;2.60;;;;;;;22.00;74.01;100279.59;4470159;32;20478;-66
2022/06/13 02:23:32;;;;;;;3.00;2.80;;;;;;;22.01;72.13;100275.94;4470273;32;20103;-66
2022/06/13 02:26:08;;;;;;;3.22;3.00;;;;;;;21.88;72.68;100275.84;4470162;32;20548;-66
2022/06/13 02:28:41;;;;;;;3.08;2.78;;;;;;;22.17;70.32;100277.63;4470332;32;20118;-66
2022/06/13 02:31:16;;;;;;;2.75;2.55;;;;;;;22.01;72.06;100278.63;4469894;32;20532;-65
2022/06/13 02:33:52;;;;;;;3.35;2.72;;;;;;;21.98;72.10;100278.81;4470298;32;20088;-66
2022/06/13 02:36:38;;;;;;;5.30;2.90;;;;;;;21.90;72.59;100279.28;4470095;32;20434;-66
2022/06/13 02:39:10;;;;;;;3.50;3.20;;;;;;;21.72;74.67;100279.44;4470137;32;20177;-66
2022/06/13 02:41:47;;;;;;;7.28;3.08;;;;;;;21.69;74.81;100276.06;4470244;32;20123;-66
2022/06/13 02:44:54;;;;;;;5.25;3.00;;;;;;;21.84;73.62;100269.81;4470037;32;20088;-66
2022/06/13 02:47:44;;;;;;;3.25;2.92;;;;;;;21.72;75.62;100265.16;4404972;32;20444;-66
2022/06/13 02:50:17;;;;;;;4.60;3.00;;;;;;;21.86;73.85;100267.87;4467601;32;20171;-66
2022/06/13 02:53:06;;;;;;;3.33;3.00;;;;;;;21.87;73.31;100275.00;4469902;32;20494;-66
2022/06/13 02:55:44;;;;;;;5.25;3.30;;;;;;;21.83;75.58;100273.41;4470086;32;20072;-66
2022/06/13 02:58:32;;;;;;;4.00;3.15;;;;;;;21.91;74.82;100273.84;4469912;32;20144;-66
2022/06/13 03:01:20;;;;;;;4.00;3.05;;;;;;;21.76;76.11;100269.38;4469834;32;20092;-66
2022/06/13 03:04:02;;;;;;;3.05;2.85;;;;;;;21.71;76.24;100279.53;4469835;32;20552;-66
2022/06/13 03:06:43;;;;;;;5.60;3.30;;;;;;;22.09;75.76;100276.38;4469818;32;20081;-66
2022/06/13 03:09:23;;;;;;;3.30;2.92;;;;;;;22.52;74.20;100277.25;4469990;32;20092;-66
2022/06/13 03:12:03;;;;;;;4.03;3.37;;;;;;;22.81;72.82;100275.38;4469714;32;20092;-66
2022/06/13 03:14:30;;;;;;;3.72;3.17;;;;;;;22.91;72.20;100264.91;4469765;32;20218;-66
2022/06/13 03:17:02;;;;;;;5.68;3.17;;;;;;;22.47;72.73;100265.06;4469655;32;20093;-66
2022/06/13 03:19:38;;;;;;;3.67;3.37;;;;;;;22.02;74.86;100275.00;4469627;32;20110;-66
2022/06/13 03:22:25;;;;;;;8.10;3.33;;;;;;;22.01;75.25;100273.25;4469650;32;20123;-66
2022/06/13 03:25:03;;;;;;;;;;;;;;;22.14;73.08;100277.81;4469992;32;20563;-66
2022/06/13 03:28:03;;;;;;;4.45;3.22;;;;;;;22.26;71.95;100278.91;4468682;32;19979;-66
2022/06/13 03:30:32;;;;;;;3.15;2.92;;;;;;;22.29;71.53;100272.47;4453587;32;20130;-66
2022/06/13 03:36:30;;;;;;;5.47;2.95;;;;;;;22.42;72.64;100260.00;4419816;32;20176;-66
2022/06/13 03:39:12;;;;;;;4.57;3.00;;;;;;;22.58;73.26;100267.94;4466757;32;20752;-66
2022/06/13 03:41:57;;;;;;;5.82;2.72;;;;;;;22.57;71.11;100267.06;4469407;32;20496;-66
2022/06/13 03:44:30;;;;;;;3.25;2.80;;;;;;;22.50;74.13;100262.19;4469480;32;20157;-66
2022/06/13 03:47:05;;;;;;;3.37;2.55;;;;;;;22.51;73.36;100262.12;4469310;32;20519;-66
2022/06/13 03:49:40;;;;;;;7.03;2.33;;;;;;;22.55;72.84;100257.41;4469086;32;20705;-66
2022/06/13 03:52:12;;;;;;;2.70;2.50;;;;;;;22.63;72.45;100261.31;4468194;31;20085;-66
2022/06/13 03:54:45;;;;;;;5.10;2.90;;;;;;;22.79;72.00;100258.53;4455247;32;20142;-66
2022/06/13 03:57:27;;;;;;;3.47;2.85;;;;;;;22.82;70.48;100258.31;4462329;32;20104;-66
2022/06/13 04:00:01;;;;;;;4.37;2.67;;;;;;;22.89;70.05;100250.72;4462486;32;20076;-66
2022/06/13 04:02:33;;;;;;;8.02;2.47;;;;;;;22.98;70.43;100262.72;4460778;32;20089;-66
2022/06/13 04:05:01;;;;;;;2.45;2.25;;;;;;;23.12;69.59;100251.94;4459954;32;20533;-66
2022/06/13 04:07:33;;;;;;;5.50;2.70;;;;;;;23.31;68.78;100260.47;4446963;32;20116;-67
2022/06/13 04:10:03;;;;;;;4.18;2.33;;;;;;;23.29;70.29;100254.37;4460916;32;20096;-66
2022/06/13 04:12:31;;;;;;;5.10;2.15;;;;;;;23.41;68.43;100255.38;4459980;32;20157;-67
2022/06/13 04:15:40;;;;;;;2.58;2.22;;;;;;;23.67;66.87;100252.72;4464261;32;20089;-67
2022/06/13 04:18:23;;;;;;;4.28;2.30;;;;;;;23.68;66.58;100249.12;4456541;32;20118;-66
2022/06/13 04:20:59;;;;;;;3.17;2.72;;;;;;;23.90;67.00;100253.87;4460935;32;20319;-67
2022/06/13 04:23:36;;;;;;;;;;;;;;;23.93;66.75;100251.84;4449492;32;122812;-66
2022/06/13 04:26:32;;;;;;;4.82;3.25;;;;;;;24.00;66.21;100258.50;4464707;32;19979;-67
2022/06/13 04:29:05;;;;;;;6.37;3.57;;;;;;;24.12;65.71;100264.84;4428830;32;20100;-66
2022/06/13 04:31:34;;;;;;;5.15;2.65;;;;;;;24.32;63.83;100260.75;4461430;32;20084;-66
2022/06/13 04:34:11;;;;;;;3.22;2.60;;;;;;;24.40;63.92;100263.78;4461871;32;20108;-66
2022/06/13 04:36:39;;;;;;;3.33;2.53;;;;;;;24.58;63.26;100266.12;4447494;32;20105;-67
2022/06/13 04:39:10;;;;;;;5.60;2.80;;;;;;;23.26;66.28;100264.47;4460734;32;20104;-67
2022/06/13 04:41:40;;;;;;;7.85;2.47;;;;;;;22.85;70.09;100268.84;4463663;32;20097;-67
2022/06/13 04:44:14;;;;;;;3.20;2.40;;;;;;;25.28;64.10;100264.53;4437562;32;20095;-67
2022/06/13 04:46:43;;;;;;;6.62;2.10;;;;;;;27.42;53.62;100259.28;4461573;32;20612;-67
2022/06/13 04:49:28;;;;;;;7.07;2.25;;;;;;;27.67;51.67;100259.91;4462155;32;20550;-67
2022/06/13 04:51:59;;;;;;;7.55;2.42;;;;;;;27.28;51.78;100256.88;4462911;32;20085;-67
2022/06/13 04:54:35;;;;;;;4.62;2.47;;;;;;;26.91;53.14;100265.31;4461382;32;20080;-67
2022/06/13 04:57:04;;;;;;;8.15;3.10;;;;;;;25.52;61.72;100253.72;4450528;32;20173;-67
2022/06/13 04:59:33;;;;;;;8.13;3.20;;;;;;;25.94;62.74;100262.22;4462124;32;20112;-67
2022/06/13 05:02:02;;;;;;;6.62;3.10;;;;;;;25.54;64.23;100259.00;4461668;32;20081;-67
2022/06/13 05:04:30;;;;;;;7.43;3.22;;;;;;;26.05;63.71;100260.53;4463173;32;20407;-67
2022/06/13 05:07:20;;;;;;;3.10;2.85;;;;;;;25.67;64.11;100262.47;4465167;32;20139;-67
2022/06/13 05:09:56;;;;;;;5.12;2.92;;;;;;;25.95;61.47;100263.09;4470668;32;20096;-67
2022/06/13 05:12:33;;;;;;;9.48;2.40;;;;;;;26.02;62.32;100258.06;4470476;32;20077;-67
2022/06/13 05:15:20;;;;;;;;;;;;;;;26.18;61.19;100258.56;4455618;32;20092;-67
2022/06/13 05:18:32;;;;;;;8.07;2.85;;;;;;;26.32;60.81;100263.72;4454649;32;19987;-67
2022/06/13 05:21:07;;;;;;;3.83;2.40;;;;;;;26.25;58.85;100256.25;4393907;32;20167;-67
2022/06/13 05:23:56;;;;;;;4.67;2.40;;;;;;;26.70;55.43;100254.41;4477778;31;20428;-67
2022/06/13 05:26:28;;;;;;;4.00;2.05;;;;;;;26.79;54.52;100260.94;4486839;31;20215;-67
2022/06/13 05:28:57;;;;;;;6.22;2.30;;;;;;;26.78;52.84;100262.75;4466938;31;20132;-67
2022/06/13 05:31:24;;;;;;;5.80;2.05;;;;;;;26.80;51.46;100273.47;4455161;32;20142;-67
2022/06/13 05:33:54;;;;;;;2.60;1.85;;;;;;;26.46;50.30;100263.50;4454532;32;20153;-67
2022/06/13 05:36:25;;;;;;;4.12;1.77;;;;;;;26.60;48.18;100270.50;4454359;32;20784;-67
2022/06/13 05:38:55;;;;;;;2.90;1.65;;;;;;;26.33;46.43;100270.87;4454537;32;20104;-67
2022/06/13 05:41:23;;;;;;;2.45;1.50;;;;;;;26.53;45.39;100266.59;4454857;32;20101;-67
2022/06/13 05:43:50;;;;;;;5.87;2.00;;;;;;;26.85;45.04;100271.22;4454420;32;20504;-67
2022/06/13 05:46:22;;;;;;;2.65;1.80;;;;;;;27.21;45.39;100263.78;4454642;32;20088;-67
2022/06/13 05:48:50;;;;;;;5.68;2.00;;;;;;;26.98;45.31;100268.38;4454334;32;20146;-67
2022/06/13 05:51:17;;;;;;;7.22;2.03;;;;;;;27.24;45.35;100266.25;4453857;32;20104;-67
2022/06/13 05:53:45;;;;;;;1.92;1.60;;;;;;;27.49;44.94;100263.22;4453954;32;20084;-67
2022/06/13 05:56:12;;;;;;;7.62;1.70;;;;;;;26.96;43.91;100262.22;4454423;32;20154;-67
2022/06/13 05:58:40;;;;;;;3.08;1.70;;;;;;;27.12;44.17;100257.31;4454465;32;20097;-68
2022/06/13 06:01:07;;;;;;;4.55;1.75;;;;;;;27.01;43.85;100262.72;4454567;32;20092;-67
2022/06/13 06:03:34;;;;;;;1.50;1.40;;;;;;;27.25;44.95;100257.16;4454308;32;20425;-67
2022/06/13 06:06:02;;;;;;;5.62;2.28;;;;;;;27.59;43.66;100263.28;4454416;32;20118;-67
2022/06/13 06:08:33;;;;;;;9.27;1.92;;;;;;;27.60;44.13;100268.56;4454504;32;20475;-67
2022/06/13 06:11:01;;;;;;;1.85;1.75;;;;;;;27.37;45.23;100261.53;4454249;32;20150;-67
2022/06/13 06:13:29;;;;;;;3.90;1.80;;;;;;;27.40;45.71;100259.44;4459165;32;20436;-67
2022/06/13 06:16:00;;;;;;;10.27;1.80;;;;;;;27.55;44.72;100267.25;4470129;32;20088;-67
2022/06/13 06:18:29;;;;;;;1.77;1.65;;;;;;;27.58;45.54;100270.53;4469688;32;20084;-67
2022/06/13 06:20:57;;;;;;;9.02;1.70;;;;;;;27.71;44.18;100261.41;4469727;32;20092;-67
2022/06/13 06:23:24;;;;;;;2.67;1.67;;;;;;;27.80;44.15;100261.47;4469903;32;20088;-67
2022/06/13 06:25:52;;;;;;;2.12;1.48;;;;;;;27.97;45.32;100259.16;4468557;32;20421;-67
2022/06/13 06:28:25;;;;;;;9.45;2.12;;;;;;;28.19;43.52;100266.28;4454258;32;20085;-67
2022/06/13 06:30:54;;;;;;;2.12;1.90;;;;;;;28.14;42.54;100268.53;4454164;32;20109;-67
2022/06/13 06:33:23;;;;;;;1.83;1.70;;;;;;;28.10;41.18;100262.53;4454094;32;20084;-67
2022/06/13 06:35:51;;;;;;;10.10;2.33;;;;;;;26.81;45.99;100267.06;4454226;32;20109;-68
2022/06/13 06:38:24;;;;;;;1.95;1.50;;;;;;;26.23;50.48;100269.88;4453985;32;20089;-68
2022/06/13 06:40:52;;;;;;;2.70;2.03;;;;;;;26.17;51.98;100268.50;4453901;32;20637;-67
2022/06/13 06:43:20;;;;;;;2.72;1.80;;;;;;;26.32;51.11;100270.97;4454244;32;20092;-67
2022/06/13 06:45:48;;;;;;;8.25;2.08;;;;;;;26.40;50.55;100271.25;4454352;32;20088;-68
2022/06/13 06:48:18;;;;;;;4.93;2.12;;;;;;;26.53;50.27;100274.69;4439411;32;20104;-67
2022/06/13 06:50:49;;;;;;;3.83;2.10;;;;;;;26.53;52.09;100274.69;4454079;32;20464;-67
2022/06/13 06:53:22;;;;;;;3.50;1.90;;;;;;;28.19;47.09;100268.97;4454199;32;20072;-67
2022/06/13 07:01:28;;;;;;;3.87;2.00;;;;;;;28.81;45.90;100265.28;4454265;32;20105;-67
2022/06/13 07:03:55;;;;;;;9.07;2.33;;;;;;;29.05;45.50;100264.97;4454736;32;20085;-67
2022/06/13 07:06:22;;;;;;;4.28;1.87;;;;;;;29.22;44.56;100260.69;4454753;32;20152;-67
2022/06/13 07:08:50;;;;;;;2.55;2.10;;;;;;;29.29;44.25;100264.53;4454258;32;20093;-67
2022/06/13 07:14:12;;;;;;;3.40;1.75;;;;;;;29.57;43.86;100275.56;4464467;32;20159;-67
2022/06/13 07:16:39;;;;;;;4.07;1.80;;;;;;;29.70;42.66;100266.16;4470575;32;20096;-67
2022/06/13 07:19:06;;;;;;;1.70;1.60;;;;;;;29.73;43.59;100273.16;4467862;32;20722;-67
2022/06/13 07:21:34;;;;;;;2.55;1.67;;;;;;;29.86;43.92;100270.13;4455794;32;20169;-67
2022/06/13 07:24:01;;;;;;;9.63;2.70;;;;;;;30.03;42.36;100269.38;4469625;32;20079;-67
2022/06/13 07:26:28;;;;;;;6.37;1.95;;;;;;;30.11;43.63;100264.09;4470161;32;20084;-67
2022/06/13 07:28:56;;;;;;;6.57;2.03;;;;;;;29.97;42.23;100262.69;4455911;32;20151;-67
2022/06/13 07:31:40;;;;;;;2.53;1.87;;;;;;;29.99;41.65;100266.09;4468739;32;20173;-67
2022/06/13 07:34:14;;;;;;;2.45;1.87;;;;;;;29.79;41.75;100267.16;4469695;32;20153;-67
2022/06/13 07:36:48;;;;;;;2.20;1.80;;;;;;;30.06;40.28;100265.53;4469346;32;20088;-67
2022/06/13 07:39:16;;;;;;;2.95;1.85;;;;;;;30.07;40.46;100261.78;4469394;32;20889;-68
2022/06/13 07:41:44;;;;;;;5.72;2.20;;;;;;;29.83;40.96;100259.56;4469664;32;20097;-67
2022/06/13 07:44:21;;;;;;;1.90;1.80;;;;;;;30.29;40.84;100264.22;4453388;32;20145;-67
2022/06/13 07:46:50;;;;;;;4.70;2.00;;;;;;;30.05;41.94;100261.09;4461548;32;20116;-68
2022/06/13 07:49:19;;;;;;;4.00;1.90;;;;;;;30.36;41.37;100267.19;4459592;32;20177;-67
2022/06/13 07:51:47;;;;;;;3.42;1.87;;;;;;;30.58;41.09;100268.66;4459421;32;20166;-68
2022/06/13 07:54:16;;;;;;;25.00;2.62;;;;;;;30.84;41.04;100264.25;4453635;32;20093;-67
2022/06/13 07:56:44;;;;;;;7.07;2.50;;;;;;;30.98;40.48;100262.03;4451327;32;20097;-67
2022/06/13 07:59:21;;;;;;;4.50;2.03;;;;;;;30.57;40.30;100266.97;4453630;32;20096;-67
2022/06/13 08:01:49;;;;;;;4.75;2.20;;;;;;;30.93;40.75;100259.78;4459454;32;20108;-68
2022/06/13 08:04:16;;;;;;;9.77;2.30;;;;;;;31.19;41.04;100262.59;4458842;32;20116;-67
2022/06/13 08:06:44;;;;;;;5.03;2.00;;;;;;;31.50;40.17;100263.13;4444201;32;20104;-67
2022/06/13 08:09:11;;;;;;;2.80;2.30;;;;;;;31.62;40.01;100255.53;4464785;32;20225;-68
2022/06/13 08:11:48;;;;;;;1.90;1.80;;;;;;;31.76;39.96;100252.25;4469467;32;20156;-68
2022/06/13 08:14:16;;;;;;;2.70;1.85;;;;;;;31.86;39.57;100252.16;4460001;32;20423;-68
2022/06/13 08:16:44;;;;;;;3.65;2.12;;;;;;;31.82;39.00;100245.34;4455764;32;20432;-68
2022/06/13 08:19:11;;;;;;;3.75;2.22;;;;;;;31.35;39.66;100235.59;4441065;32;20097;-68
2022/06/13 08:21:40;;;;;;;6.97;2.30;;;;;;;31.39;39.49;100234.25;4456027;32;20127;-67
2022/06/13 08:24:07;;;;;;;2.60;2.40;;;;;;;31.30;40.35;100237.03;4455905;32;20076;-68
2022/06/13 08:26:42;;;;;;;7.55;1.90;;;;;;;31.54;40.91;100237.28;4442531;32;20436;-68
2022/06/13 08:29:10;;;;;;;6.53;2.78;;;;;;;32.20;39.48;100241.38;4456033;32;20172;-68
2022/06/13 08:31:38;;;;;;;3.78;1.95;;;;;;;32.55;39.88;100240.37;4456378;32;20101;-68
2022/06/13 08:34:05;;;;;;;8.77;2.03;;;;;;;32.71;38.75;100242.31;4456006;32;20076;-68
2022/06/13 08:36:33;;;;;;;2.50;2.30;;;;;;;30.14;44.07;100242.06;4455860;32;20115;-68
2022/06/13 08:39:00;;;;;;;6.60;2.50;;;;;;;30.86;40.82;100248.66;4455613;32;20906;-68
2022/06/13 08:41:42;;;;;;;3.83;2.12;;;;;;;31.70;40.43;100241.13;4455418;32;20293;-68
2022/06/13 08:44:43;;;;;;;2.50;2.30;;;;;;;32.57;38.93;100243.78;4463404;32;20701;-68
2022/06/13 08:47:23;;;;;;;3.22;2.40;;;;;;;32.17;38.34;100244.41;4445295;32;20088;-68
2022/06/13 08:50:09;;;;;;;2.62;2.37;;;;;;;32.33;37.93;100240.91;4462217;32;20097;-68
2022/06/13 08:52:36;;;;;;;;;;;;;;;32.26;38.24;100239.84;4462714;32;20172;-68
2022/06/13 08:55:29;;;;;;;4.05;2.35;;;;;;;31.37;37.96;100239.00;4466252;32;19980;-68
2022/06/13 08:58:10;;;;;;;4.30;2.15;;;;;;;31.68;38.09;100238.59;4470833;32;20150;-68
2022/06/13 09:00:44;;;;;;;2.70;2.45;;;;;;;32.64;36.13;100226.75;4457790;32;20088;-68
2022/06/13 09:03:26;;;;;;;5.30;2.30;;;;;;;32.68;36.83;100223.53;4458536;32;20101;-68
2022/06/13 09:05:58;;;;;;;2.80;2.15;;;;;;;32.38;37.39;100225.78;4466705;32;20084;-69
2022/06/13 09:08:35;;;;;;;3.95;2.10;;;;;;;32.34;38.68;100226.28;4460595;32;20080;-69
2022/06/13 09:11:21;;;;;;;4.05;2.03;;;;;;;30.32;40.05;100227.69;4447601;32;20101;-69
2022/06/13 09:14:19;;;;;;;4.10;1.98;;;;;;;30.08;40.91;100220.91;4462319;32;20145;-69
2022/06/13 09:17:12;;;;;;;8.93;2.33;;;;;;;32.66;34.68;100224.75;4470358;32;20072;-69
2022/06/13 09:19:54;;;;;;;4.25;2.03;;;;;;;29.92;41.62;100217.94;4460780;32;20361;-69
2022/06/13 09:22:38;;;;;;;2.40;2.20;;;;;;;30.58;43.09;100217.00;4461829;31;20134;-69
2022/06/13 09:26:02;;;;;;;6.75;2.37;;;;;;;30.80;40.12;100210.31;4461498;32;20093;-68
2022/06/13 09:28:48;;;;;;;4.68;2.80;;;;;;;30.71;39.14;100214.78;4451313;32;20115;-68
2022/06/13 09:31:19;;;;;;;5.72;2.20;;;;;;;30.85;38.66;100205.25;4455228;32;20107;-68
2022/06/13 09:33:52;;;;;;;2.20;2.03;;;;;;;31.12;38.20;100199.75;4455092;32;20158;-68
2022/06/13 09:36:22;;;;;;;2.60;2.05;;;;;;;30.84;37.62;100198.97;4455568;32;20118;-68
2022/06/13 09:38:59;;;;;;;8.23;2.40;;;;;;;30.79;39.85;100195.00;4453572;31;20114;-68
2022/06/13 09:41:54;;;;;;;3.55;2.22;;;;;;;31.17;37.98;100194.72;4453882;32;20089;-68
2022/06/13 09:44:48;;;;;;;4.43;2.22;;;;;;;31.22;36.24;100187.94;4455408;32;20713;-68
2022/06/13 09:47:33;;;;;;;5.97;2.20;;;;;;;31.17;37.85;100192.00;4436871;32;20122;-68
2022/06/13 09:50:43;;;;;;;4.05;2.00;;;;;;;31.75;37.25;100187.03;4455266;32;20080;-68
2022/06/13 09:53:22;;;;;;;4.12;2.12;;;;;;;31.56;36.14;100180.78;4439111;32;20073;-68
2022/06/13 09:56:05;;;;;;;3.33;2.40;;;;;;;31.87;36.23;100173.03;4454810;31;20484;-68
2022/06/13 09:58:56;;;;;;;8.68;2.37;;;;;;;31.66;37.32;100176.09;4454787;32;20188;-68
2022/06/13 10:01:47;;;;;;;3.28;2.10;;;;;;;32.24;36.31;100169.13;4462158;32;20084;-68
2022/06/13 10:04:53;;;;;;;3.22;1.77;;;;;;;32.52;35.06;100161.59;4462278;32;20084;-68
2022/06/13 10:07:27;;;;;;;3.75;2.15;;;;;;;33.11;34.81;100156.09;4461384;32;20093;-68
2022/06/13 10:10:16;;;;;;;3.22;1.80;;;;;;;33.60;33.80;100152.53;4461007;32;20108;-68
2022/06/13 10:12:43;;;;;;;1.98;1.87;;;;;;;33.27;35.62;100134.28;4454869;32;20095;-68
2022/06/13 10:15:48;;;;;;;2.25;1.80;;;;;;;32.70;35.01;100147.00;4455225;32;20156;-68
2022/06/13 10:18:45;;;;;;;13.25;2.28;;;;;;;32.80;34.23;100139.50;4463982;32;20487;-68
2022/06/13 10:21:23;;;;;;;2.42;2.20;;;;;;;32.46;34.84;100150.50;4470923;32;20209;-68
2022/06/13 10:24:15;;;;;;;2.42;1.83;;;;;;;32.88;35.33;100144.12;4470921;32;20467;-68
2022/06/13 10:26:46;;;;;;;4.35;1.90;;;;;;;33.03;35.94;100147.91;4470826;32;20089;-68
2022/06/13 10:29:19;;;;;;;4.18;1.70;;;;;;;33.42;34.12;100139.03;4470787;32;20891;-68
2022/06/13 10:31:58;;;;;;;3.42;1.92;;;;;;;33.19;34.21;100136.16;4470380;32;20108;-68
2022/06/13 10:34:45;;;;;;;2.00;1.90;;;;;;;33.10;33.86;100132.56;4470525;32;20686;-68
2022/06/13 10:37:19;;;;;;;8.05;1.73;;;;;;;33.18;34.46;100132.59;4470369;32;20093;-68
2022/06/13 10:39:50;;;;;;;3.33;1.73;;;;;;;33.58;33.54;100117.22;4470384;32;20084;-68
2022/06/13 10:42:24;;;;;;;3.28;1.60;;;;;;;34.42;32.87;100125.81;4470150;32;20486;-68
2022/06/13 10:44:52;;;;;;;5.55;1.75;;;;;;;34.52;32.43;100115.53;4469309;31;20100;-68
2022/06/13 10:47:26;;;;;;;4.28;2.15;;;;;;;33.12;34.07;100126.94;4458382;32;20169;-68
2022/06/13 10:50:02;;;;;;;4.82;1.70;;;;;;;33.24;34.71;100112.75;4453163;32;20105;-68
2022/06/13 10:52:36;;;;;;;2.00;1.80;;;;;;;33.18;34.24;100121.66;4454073;32;20772;-68
2022/06/13 10:55:12;;;;;;;2.60;1.80;;;;;;;32.89;34.86;100102.16;4459389;32;20096;-68
2022/06/13 10:57:43;;;;;;;14.07;2.00;;;;;;;33.85;34.86;100095.94;4452805;32;20085;-67
2022/06/13 11:00:14;;;;;;;3.40;1.83;;;;;;;34.76;33.50;100098.09;4452809;32;20100;-67
2022/06/13 11:02:42;;;;;;;4.43;1.73;;;;;;;34.44;33.16;100090.91;4453478;32;20488;-68
2022/06/13 11:05:25;;;;;;;3.22;1.73;;;;;;;33.83;33.34;100095.28;4453613;32;20148;-67
2022/06/13 11:08:00;;;;;;;1.73;1.62;;;;;;;33.91;32.92;100095.25;4454988;32;20705;-68
2022/06/13 11:10:39;;;;;;;2.33;1.87;;;;;;;34.47;33.55;100077.72;4452782;32;20143;-67
2022/06/13 11:13:15;;;;;;;3.12;1.62;;;;;;;35.09;32.21;100082.31;4452081;32;20887;-68
2022/06/13 11:25:11;;;;;;;2.90;2.03;;;;;;;32.68;35.44;100068.03;4453730;32;20499;-68
2022/06/13 11:27:40;;;;;;;3.78;1.80;;;;;;;32.20;36.66;100079.66;4390066;32;20726;-68
2022/06/13 11:30:35;;;;;;;6.47;2.10;;;;;;;32.03;37.79;100076.03;4442823;32;20092;-67
2022/06/13 11:33:26;;;;;;;5.32;2.47;;;;;;;31.52;39.44;100081.37;4454350;32;20089;-68
2022/06/13 11:35:59;;;;;;;6.90;2.33;;;;;;;31.49;40.75;100086.28;4454700;32;20135;-68
2022/06/13 11:38:30;;;;;;;6.87;2.25;;;;;;;31.35;41.11;100085.84;4454534;32;20111;-67
2022/06/13 11:41:17;;;;;;;2.95;2.30;;;;;;;31.76;41.38;100072.44;4461777;32;20135;-68
2022/06/13 11:43:59;;;;;;;3.28;1.83;;;;;;;32.54;41.05;100066.81;4461675;32;20104;-68
2022/06/13 11:46:27;;;;;;;4.05;2.10;;;;;;;33.93;36.93;100065.88;4463203;32;20096;-68
2022/06/13 11:49:19;;;;;;;4.47;2.58;;;;;;;35.07;36.13;100056.97;4460622;32;20940;-68
2022/06/13 11:52:10;;;;;;;3.55;2.10;;;;;;;35.16;34.98;100064.09;4459853;32;20114;-67
2022/06/13 11:54:47;;;;;;;2.90;2.20;;;;;;;36.30;33.67;100048.22;4458155;32;20116;-67
2022/06/13 11:57:14;;;;;;;2.33;2.12;;;;;;;36.47;32.40;100043.34;4459694;32;20088;-67
2022/06/13 12:00:06;;;;;;;1.90;1.77;;;;;;;37.11;31.94;100049.91;4463990;32;20741;-67
2022/06/13 12:03:04;;;;;;;7.50;2.42;;;;;;;37.16;31.26;100040.00;4431770;32;20139;-68
2022/06/13 12:05:35;;;;;;;2.20;1.98;;;;;;;38.03;30.75;100042.28;4469267;32;20573;-68
2022/06/13 12:08:28;;;;;;;1.95;1.83;;;;;;;37.45;29.95;100044.47;4468636;32;20126;-69
2022/06/13 12:11:00;;;;;;;4.87;1.83;;;;;;;38.16;29.42;100043.38;4465480;32;20149;-69
2022/06/13 12:13:32;;;;;;;3.33;1.73;;;;;;;38.08;28.06;100040.81;4469071;32;20112;-69
2022/06/13 12:16:11;;;;;;;3.17;1.98;;;;;;;39.23;28.07;100038.94;4469407;32;20187;-69
2022/06/13 12:19:33;;;;;;;1.80;1.70;;;;;;;38.06;27.31;100037.41;4469483;32;20085;-69
2022/06/13 12:22:09;;;;;;;3.12;1.90;;;;;;;38.45;28.00;100026.56;4403432;32;20235;-69
2022/06/13 12:24:51;;;;;;;3.53;1.73;;;;;;;38.74;27.81;100022.56;4398526;32;20806;-69
2022/06/13 12:27:40;;;;;;;3.70;1.80;;;;;;;39.40;27.13;100030.03;4437239;32;20116;-69
2022/06/13 12:30:18;;;;;;;2.78;1.75;;;;;;;39.16;26.04;100020.47;4457859;32;20123;-69
2022/06/13 12:33:11;;;;;;;1.83;1.62;;;;;;;40.04;25.81;100025.59;4461413;32;20108;-69
2022/06/13 12:35:52;;;;;;;2.20;1.83;;;;;;;38.66;26.92;100027.41;4458129;32;20096;-69